createdAt,value
2018-07-04T00:01:34.854Z,7.27
2018-07-04T00:04:21.653Z,6.10
2018-07-04T00:07:08.568Z,6.23
2018-07-04T00:09:55.308Z,5.67
2018-07-04T00:12:42.244Z,5.93
2018-07-04T00:15:29.045Z,5.40
2018-07-04T00:18:15.905Z,6.30
2018-07-04T00:21:02.692Z,5.73
2018-07-04T00:23:49.438Z,5.77
2018-07-04T00:26:36.142Z,7.40
2018-07-04T00:29:23.109Z,5.90
2018-07-04T00:32:09.809Z,6.73
2018-07-04T00:34:56.896Z,6.23
2018-07-04T00:37:43.635Z,6.30
2018-07-04T00:40:30.481Z,5.63
2018-07-04T00:43:17.197Z,6.33
2018-07-04T00:46:03.905Z,5.90
2018-07-04T00:48:50.678Z,6.03
2018-07-04T00:51:37.440Z,5.70
2018-07-04T00:54:24.173Z,6.00
2018-07-04T00:57:10.833Z,5.90
2018-07-04T00:59:57.748Z,39.40
2018-07-04T01:02:44.488Z,18.43
2018-07-04T01:05:31.256Z,8.13
2018-07-04T01:08:18.197Z,7.50
2018-07-04T01:11:05.213Z,7.70
2018-07-04T01:13:51.925Z,7.20
2018-07-04T01:16:38.645Z,6.60
2018-07-04T01:19:25.502Z,6.63
2018-07-04T01:22:12.618Z,6.53
2018-07-04T01:24:59.635Z,6.83
2018-07-04T01:27:46.949Z,6.67
2018-07-04T01:30:33.962Z,7.00
2018-07-04T01:33:21.105Z,6.63
2018-07-04T01:36:08.288Z,6.93
2018-07-04T01:38:55.385Z,7.00
2018-07-04T01:41:42.133Z,8.10
2018-07-04T01:44:29.109Z,7.90
2018-07-04T01:47:16.256Z,6.60
2018-07-04T01:50:03.465Z,7.10
2018-07-04T01:52:50.648Z,7.07
2018-07-04T01:55:37.862Z,6.93
2018-07-04T01:58:24.718Z,6.67
2018-07-04T02:01:11.776Z,6.10
2018-07-04T02:03:58.785Z,6.97
2018-07-04T02:06:45.795Z,7.00
2018-07-04T02:09:32.803Z,6.70
2018-07-04T02:12:20.018Z,6.77
2018-07-04T02:15:06.849Z,8.03
2018-07-04T02:17:53.829Z,7.43
2018-07-04T02:20:40.872Z,7.33
2018-07-04T02:23:28.000Z,7.40
2018-07-04T02:26:15.152Z,7.03
2018-07-04T02:29:02.262Z,7.63
2018-07-04T02:31:49.435Z,7.57
2018-07-04T02:34:36.495Z,6.93
2018-07-04T02:37:23.506Z,6.33
2018-07-04T02:40:10.449Z,6.17
2018-07-04T02:42:57.732Z,6.57
2018-07-04T02:45:44.679Z,6.10
2018-07-04T02:48:31.745Z,6.40
2018-07-04T02:51:18.759Z,6.23
2018-07-04T02:54:05.853Z,6.03
2018-07-04T02:56:52.933Z,6.63
2018-07-04T02:59:40.088Z,5.93
2018-07-04T03:02:27.301Z,6.47
2018-07-04T03:05:14.413Z,6.30
2018-07-04T03:08:01.422Z,6.77
2018-07-04T03:10:48.438Z,6.13
2018-07-04T03:13:35.542Z,6.57
2018-07-04T03:16:23.025Z,6.83
2018-07-04T03:19:09.814Z,6.20
2018-07-04T03:21:56.597Z,6.53
2018-07-04T03:24:43.463Z,6.70
2018-07-04T03:27:30.292Z,6.50
2018-07-04T03:30:17.097Z,6.53
2018-07-04T03:33:03.981Z,6.57
2018-07-04T03:35:50.898Z,6.73
2018-07-04T03:38:37.752Z,6.67
2018-07-04T03:41:24.492Z,7.50
2018-07-04T03:44:11.191Z,7.10
2018-07-04T03:46:58.045Z,8.13
2018-07-04T03:49:44.940Z,7.57
2018-07-04T03:52:31.608Z,13.47
2018-07-04T03:55:18.485Z,16.97
2018-07-04T03:58:05.480Z,17.27
2018-07-04T04:00:52.333Z,14.87
2018-07-04T04:03:39.034Z,23.00
2018-07-04T04:06:26.153Z,21.00
2018-07-04T04:09:13.366Z,26.50
2018-07-04T04:12:00.285Z,26.43
2018-07-04T04:14:47.384Z,28.17
2018-07-04T04:17:35.009Z,39.20
2018-07-04T04:20:22.016Z,45.03
2018-07-04T04:23:08.792Z,69.60
2018-07-04T04:25:55.602Z,53.13
2018-07-04T04:28:42.603Z,71.67
2018-07-04T04:31:29.540Z,68.63
2018-07-04T04:34:16.481Z,109.67
2018-07-04T04:37:03.762Z,6.00
2018-07-04T04:39:50.873Z,105.80
2018-07-04T04:42:37.984Z,7.40
2018-07-04T04:45:25.095Z,5.60
2018-07-04T04:48:12.135Z,5.10
2018-07-04T04:50:59.201Z,5.20
2018-07-04T04:53:46.122Z,5.77
2018-07-04T04:56:33.336Z,5.73
2018-07-04T04:59:20.272Z,7.63
2018-07-04T05:02:07.156Z,7.13
2018-07-04T05:04:53.997Z,16.67
2018-07-04T05:07:40.781Z,34.20
2018-07-04T05:10:27.681Z,136.10
2018-07-04T05:13:14.502Z,347.93
2018-07-04T05:16:01.189Z,475.33
2018-07-04T05:18:47.893Z,890.70
2018-07-04T05:21:35.193Z,936.05
2018-07-04T05:24:22.695Z,801.98
2018-07-04T05:27:10.130Z,999.90
2018-07-04T05:29:57.584Z,999.90
2018-07-04T05:32:44.949Z,999.90
2018-07-04T05:35:32.324Z,832.02
2018-07-04T05:38:19.889Z,999.90
2018-07-04T05:41:07.445Z,999.90
2018-07-04T05:43:54.903Z,489.57
2018-07-04T05:46:42.293Z,323.25
2018-07-04T05:49:29.680Z,53.25
2018-07-04T05:52:17.226Z,897.42
2018-07-04T05:55:04.873Z,999.90
2018-07-04T05:57:52.519Z,536.25
2018-07-04T06:00:39.870Z,355.60
2018-07-04T06:03:27.060Z,115.50
2018-07-04T06:06:14.195Z,617.27
2018-07-04T06:09:01.462Z,999.90
2018-07-04T06:11:48.533Z,999.90
2018-07-04T06:14:35.708Z,896.43
2018-07-04T06:17:22.662Z,506.80
2018-07-04T06:20:09.937Z,853.93
2018-07-04T06:22:57.269Z,768.93
2018-07-04T06:25:44.377Z,797.63
2018-07-04T06:28:31.597Z,406.83
2018-07-04T06:31:18.646Z,13.03
2018-07-04T06:34:05.707Z,4.53
2018-07-04T06:36:52.774Z,705.00
2018-07-04T06:39:27.497Z,3.23
2018-07-04T06:41:56.214Z,2.60
2018-07-04T06:44:24.980Z,2.53
2018-07-04T06:46:53.774Z,2.93
2018-07-04T06:49:22.347Z,2.60
2018-07-04T06:51:50.879Z,2.63
2018-07-04T06:54:19.504Z,2.67
2018-07-04T06:56:48.261Z,2.97
2018-07-04T06:59:16.913Z,2.87
2018-07-04T07:01:45.455Z,13.97
2018-07-04T07:04:26.211Z,4.07
2018-07-04T07:07:13.238Z,3.17
2018-07-04T07:10:00.381Z,2.97
2018-07-04T07:12:47.606Z,2.57
2018-07-04T07:15:34.669Z,3.23
2018-07-04T07:18:21.682Z,3.10
2018-07-04T07:21:08.810Z,2.60
2018-07-04T07:23:55.977Z,2.70
2018-07-04T07:26:42.961Z,2.23
2018-07-04T07:29:30.041Z,2.43
2018-07-04T07:32:17.214Z,2.20
2018-07-04T07:35:04.277Z,2.30
2018-07-04T07:37:51.333Z,2.50
2018-07-04T07:40:38.312Z,2.10
2018-07-04T07:43:25.476Z,2.33
2018-07-04T07:46:12.449Z,2.00
2018-07-04T07:48:59.511Z,2.23
2018-07-04T07:51:46.620Z,2.17
2018-07-04T07:54:33.625Z,2.30
2018-07-04T07:57:22.405Z,2.33
2018-07-04T08:00:09.485Z,1.60
2018-07-04T08:02:56.532Z,1.90
2018-07-04T08:05:43.665Z,1.90
2018-07-04T08:08:30.645Z,1.40
2018-07-04T08:11:17.681Z,1.33
2018-07-04T08:14:04.738Z,1.53
2018-07-04T08:16:51.946Z,1.80
2018-07-04T08:19:39.005Z,1.60
2018-07-04T08:22:26.113Z,1.33
2018-07-04T08:25:13.257Z,1.40
2018-07-04T08:28:00.269Z,1.37
2018-07-04T08:30:47.289Z,1.60
2018-07-04T08:33:34.367Z,1.60
2018-07-04T08:36:21.596Z,1.80
2018-07-04T08:39:08.723Z,1.67
2018-07-04T08:41:55.842Z,1.60
2018-07-04T08:44:42.827Z,1.80
2018-07-04T08:47:30.078Z,1.60
2018-07-04T08:50:17.300Z,1.40
2018-07-04T08:53:04.306Z,1.20
2018-07-04T08:55:51.242Z,1.60
2018-07-04T08:58:38.635Z,1.60
2018-07-04T09:01:26.278Z,1.23
2018-07-04T09:04:13.389Z,1.50
2018-07-04T09:07:00.460Z,1.67
2018-07-04T09:09:47.662Z,1.60
2018-07-04T09:12:34.760Z,1.30
2018-07-04T09:15:21.789Z,1.43
2018-07-04T09:18:08.897Z,1.43
2018-07-04T09:20:56.122Z,1.27
2018-07-04T09:23:43.689Z,1.33
2018-07-04T09:26:31.113Z,1.43
2018-07-04T09:29:18.500Z,1.20
2018-07-04T09:32:05.689Z,1.20
2018-07-04T09:34:52.785Z,1.20
2018-07-04T09:37:39.901Z,1.57
2018-07-04T09:40:27.115Z,22.07
2018-07-04T09:43:14.573Z,380.73
2018-07-04T09:46:02.058Z,424.55
2018-07-04T09:48:49.604Z,305.90
2018-07-04T09:51:36.989Z,850.85
2018-07-04T09:54:24.417Z,10.98
2018-07-04T09:57:11.719Z,6.20
2018-07-04T09:59:59.065Z,21.70
2018-07-04T10:02:46.472Z,7.70
2018-07-04T10:05:33.874Z,13.53
2018-07-04T10:08:21.461Z,54.48
2018-07-04T10:11:08.815Z,21.80
2018-07-04T10:13:56.434Z,31.70
2018-07-04T10:16:43.945Z,55.12
2018-07-04T10:19:31.423Z,24.05
2018-07-04T10:22:18.812Z,228.30
2018-07-04T10:25:06.326Z,17.52
2018-07-04T10:27:53.733Z,6.10
2018-07-04T10:30:41.169Z,15.85
2018-07-04T10:33:28.469Z,10.08
2018-07-04T10:36:15.886Z,16.52
2018-07-04T10:39:03.516Z,9.00
2018-07-04T10:41:51.076Z,12.70
2018-07-04T10:44:38.449Z,11.03
2018-07-04T10:47:25.883Z,11.75
2018-07-04T10:50:13.289Z,12.47
2018-07-04T10:53:00.602Z,12.18
2018-07-04T10:55:47.933Z,9.50
2018-07-04T10:58:35.180Z,13.08
2018-07-04T11:01:22.560Z,12.63
2018-07-04T11:04:09.996Z,13.88
2018-07-04T11:06:57.354Z,20.30
2018-07-04T11:09:44.712Z,13.38
2018-07-04T11:12:32.328Z,21.48
2018-07-04T11:15:19.916Z,15.45
2018-07-04T11:18:07.441Z,17.52
2018-07-04T11:20:54.862Z,13.08
2018-07-04T11:23:42.352Z,13.60
2018-07-04T11:26:29.736Z,13.45
2018-07-04T11:29:17.152Z,20.65
2018-07-04T11:32:04.871Z,17.20
2018-07-04T11:34:52.379Z,15.55
2018-07-04T11:37:39.941Z,13.95
2018-07-04T11:40:27.354Z,22.02
2018-07-04T11:43:14.730Z,16.55
2018-07-04T11:45:58.231Z,17.30
2018-07-04T11:48:27.353Z,18.95
2018-07-04T11:50:56.489Z,17.50
2018-07-04T11:53:25.368Z,15.90
2018-07-04T11:55:54.202Z,13.28
2018-07-04T11:58:23.028Z,11.15
2018-07-04T12:00:51.873Z,14.30
2018-07-04T12:03:22.102Z,57.98
2018-07-04T12:06:03.780Z,14.53
2018-07-04T12:11:14.061Z,13.28
2018-07-04T12:13:43.154Z,14.87
2018-07-04T12:16:12.187Z,13.88
2018-07-04T12:18:41.049Z,14.83
2018-07-04T12:21:09.930Z,17.55
2018-07-04T12:23:38.840Z,15.00
2018-07-04T12:26:07.890Z,15.75
2018-07-04T12:28:36.974Z,15.80
2018-07-04T12:31:06.088Z,15.70
2018-07-04T12:33:35.077Z,17.00
2018-07-04T12:36:04.064Z,22.10
2018-07-04T12:38:32.893Z,13.28
2018-07-04T12:41:01.734Z,16.32
2018-07-04T12:43:30.697Z,12.10
2018-07-04T12:45:59.890Z,10.82
2018-07-04T12:48:28.717Z,11.38
2018-07-04T12:50:57.694Z,15.50
2018-07-04T12:53:26.904Z,10.65
2018-07-04T12:56:08.249Z,10.93
2018-07-04T12:58:55.850Z,10.82
2018-07-04T13:01:43.269Z,7.72
2018-07-04T13:04:30.747Z,11.03
2018-07-04T13:07:18.219Z,1.60
2018-07-04T13:10:05.499Z,1.30
2018-07-04T13:12:52.933Z,1.40
2018-07-04T13:15:40.425Z,1.42
2018-07-04T13:18:28.014Z,1.42
2018-07-04T13:21:15.369Z,1.40
2018-07-04T13:24:02.926Z,1.30
2018-07-04T13:26:50.509Z,1.50
2018-07-04T13:29:37.881Z,1.50
2018-07-04T13:32:25.315Z,1.70
2018-07-04T13:35:12.946Z,1.27
2018-07-04T13:38:00.631Z,1.37
2018-07-04T13:40:48.137Z,1.90
2018-07-04T13:43:35.617Z,1.40
2018-07-04T13:46:23.105Z,1.57
2018-07-04T13:49:10.471Z,1.90
2018-07-04T13:51:57.774Z,1.22
2018-07-04T13:54:45.106Z,1.37
2018-07-04T13:57:32.537Z,1.40
2018-07-04T14:00:19.940Z,1.40
2018-07-04T14:03:07.352Z,1.35
2018-07-04T14:05:54.644Z,1.60
2018-07-04T14:08:42.269Z,7.95
2018-07-04T14:11:29.705Z,11.03
2018-07-04T14:14:17.101Z,9.45
2018-07-04T14:17:04.334Z,8.53
2018-07-04T14:19:51.883Z,13.03
2018-07-04T14:22:39.161Z,9.73
2018-07-04T14:25:26.546Z,11.15
2018-07-04T14:28:14.179Z,11.05
2018-07-04T14:31:01.913Z,12.25
2018-07-04T14:33:49.421Z,10.82
2018-07-04T14:36:36.774Z,14.70
2018-07-04T14:39:24.204Z,12.13
2018-07-04T14:42:11.609Z,16.73
2018-07-04T14:44:59.016Z,13.10
2018-07-04T14:47:46.599Z,11.08
2018-07-04T14:50:34.081Z,12.23
2018-07-04T14:53:21.494Z,10.58
2018-07-04T14:56:09.212Z,8.63
2018-07-04T14:58:56.939Z,16.35
2018-07-04T15:01:44.561Z,12.50
2018-07-04T15:04:32.006Z,9.45
2018-07-04T15:07:19.400Z,14.58
2018-07-04T15:10:06.849Z,15.28
2018-07-04T15:12:54.262Z,11.60
2018-07-04T15:15:41.609Z,13.10
2018-07-04T15:18:29.084Z,21.57
2018-07-04T15:21:16.590Z,10.08
2018-07-04T15:24:04.007Z,11.65
2018-07-04T15:26:51.436Z,14.53
2018-07-04T15:29:38.985Z,14.03
2018-07-04T15:32:26.388Z,14.73
2018-07-04T15:35:13.781Z,18.20
2018-07-04T15:38:01.165Z,15.60
2018-07-04T15:40:48.569Z,14.70
2018-07-04T15:43:35.969Z,16.35
2018-07-04T15:46:23.390Z,14.70
2018-07-04T15:49:14.821Z,15.55
2018-07-04T15:52:02.321Z,13.48
2018-07-04T15:54:49.601Z,13.00
2018-07-04T15:57:36.926Z,9.88
2018-07-04T16:00:24.468Z,14.45
2018-07-04T16:03:11.989Z,13.05
2018-07-04T16:05:59.478Z,8.73
2018-07-04T16:08:46.998Z,13.55
2018-07-04T16:11:34.413Z,11.97
2018-07-04T16:14:22.037Z,11.70
2018-07-04T16:17:09.353Z,11.28
2018-07-04T16:19:56.665Z,10.38
2018-07-04T16:22:44.185Z,19.23
2018-07-04T16:25:31.609Z,15.35
2018-07-04T16:28:19.131Z,13.65
2018-07-04T16:31:06.593Z,19.30
2018-07-04T16:33:54.201Z,13.78
2018-07-04T16:36:41.527Z,14.38
2018-07-04T16:39:28.961Z,15.58
2018-07-04T16:42:16.373Z,15.88
2018-07-04T16:45:03.750Z,11.97
2018-07-04T16:47:51.216Z,16.52
2018-07-04T16:50:38.677Z,10.13
2018-07-04T16:53:26.339Z,12.70
2018-07-04T16:56:13.725Z,15.05
2018-07-04T16:59:01.255Z,8.53
2018-07-04T17:01:48.620Z,12.70
2018-07-04T17:04:36.029Z,14.23
2018-07-04T17:07:23.327Z,12.70
2018-07-04T17:10:10.529Z,13.00
2018-07-04T17:12:57.936Z,17.40
2018-07-04T17:15:45.436Z,13.40
2018-07-04T17:18:33.197Z,9.60
2018-07-04T17:21:20.584Z,10.05
2018-07-04T17:24:07.906Z,20.55
2018-07-04T17:26:55.220Z,12.45
2018-07-04T17:29:42.847Z,13.85
2018-07-04T17:32:30.443Z,14.35
2018-07-04T17:35:18.096Z,17.02
2018-07-04T17:38:05.509Z,13.38
2018-07-04T17:40:52.921Z,15.15
2018-07-04T17:43:40.254Z,15.28
2018-07-04T17:46:27.690Z,12.13
2018-07-04T17:49:15.046Z,12.43
2018-07-04T17:52:02.410Z,12.53
2018-07-04T17:54:49.841Z,15.63
2018-07-04T17:57:37.234Z,13.88
2018-07-04T18:00:24.765Z,13.95
2018-07-04T18:03:12.126Z,12.93
2018-07-04T18:05:59.602Z,14.03
2018-07-04T18:08:47.013Z,17.40
2018-07-04T18:11:34.534Z,13.72
2018-07-04T18:14:21.981Z,10.50
2018-07-04T18:17:09.493Z,12.00
2018-07-04T18:19:56.815Z,13.28
2018-07-04T18:22:44.189Z,9.68
2018-07-04T18:25:31.465Z,6.75
2018-07-04T18:28:18.705Z,3.02
2018-07-04T18:31:06.011Z,2.37
2018-07-04T18:33:53.554Z,2.20
2018-07-04T18:36:40.875Z,2.47
2018-07-04T18:39:28.223Z,3.20
2018-07-04T18:42:15.551Z,2.98
2018-07-04T18:45:03.101Z,2.90
2018-07-04T18:47:50.457Z,3.17
2018-07-04T18:50:37.970Z,3.20
2018-07-04T18:53:26.242Z,5.03
2018-07-04T18:56:13.597Z,4.37
2018-07-04T18:59:01.049Z,5.55
2018-07-04T19:01:48.465Z,5.72
2018-07-04T19:04:35.872Z,14.33
2018-07-04T19:07:23.206Z,10.80
2018-07-04T19:10:10.672Z,9.03
2018-07-04T19:12:57.991Z,24.82
2018-07-04T19:15:45.464Z,16.23
2018-07-04T19:18:32.993Z,12.10
2018-07-04T19:21:20.413Z,6.45
2018-07-04T19:24:07.773Z,6.58
2018-07-04T19:26:55.122Z,5.08
2018-07-04T19:29:42.604Z,7.85
2018-07-04T19:32:30.008Z,6.97
2018-07-04T19:35:17.537Z,8.08
2018-07-04T19:38:04.944Z,8.18
2018-07-04T19:40:52.417Z,8.60
2018-07-04T19:43:39.841Z,9.30
2018-07-04T19:46:27.412Z,10.32
2018-07-04T19:49:14.896Z,7.40
2018-07-04T19:52:02.355Z,6.37
2018-07-04T19:54:49.920Z,7.85
2018-07-04T19:57:37.234Z,7.40
2018-07-04T20:00:24.594Z,9.30
2018-07-04T20:03:11.920Z,10.43
2018-07-04T20:05:59.461Z,11.10
2018-07-04T20:08:46.773Z,15.88
2018-07-04T20:11:34.129Z,42.35
2018-07-04T20:14:21.629Z,42.98
2018-07-04T20:17:09.206Z,30.75
2018-07-04T20:19:56.820Z,25.62
2018-07-04T20:22:44.206Z,26.70
2018-07-04T20:25:31.718Z,26.07
2018-07-04T20:28:19.173Z,25.17
2018-07-04T20:31:06.602Z,25.82
2018-07-04T20:33:54.074Z,24.52
2018-07-04T20:36:41.514Z,23.92
2018-07-04T20:39:29.062Z,21.45
2018-07-04T20:42:16.030Z,21.43
2018-07-04T20:45:03.442Z,19.98
2018-07-04T20:47:50.762Z,19.57
2018-07-04T20:50:38.388Z,20.12
2018-07-04T20:53:25.871Z,16.73
2018-07-04T20:56:13.738Z,16.30
2018-07-04T20:59:00.560Z,17.17
2018-07-04T21:01:47.432Z,18.27
2018-07-04T21:04:34.332Z,17.00
2018-07-04T21:07:21.281Z,15.73
2018-07-04T21:10:08.204Z,16.10
2018-07-04T21:12:55.015Z,15.75
2018-07-04T21:15:41.702Z,15.23
2018-07-04T21:18:28.385Z,15.53
2018-07-04T21:21:15.442Z,16.67
2018-07-04T21:24:02.461Z,15.63
2018-07-04T21:26:49.505Z,13.47
2018-07-04T21:29:36.678Z,13.73
2018-07-04T21:32:24.028Z,11.70
2018-07-04T21:35:10.990Z,10.93
2018-07-04T21:37:58.607Z,10.10
2018-07-04T21:40:45.469Z,10.53
2018-07-04T21:43:32.368Z,9.60
2018-07-04T21:46:19.500Z,9.03
2018-07-04T21:49:06.876Z,8.90
2018-07-04T21:51:53.889Z,7.37
2018-07-04T21:54:40.873Z,6.70
2018-07-04T21:57:28.733Z,6.73
2018-07-04T22:00:19.509Z,8.80
2018-07-04T22:03:06.279Z,8.40
2018-07-04T22:05:53.230Z,11.00
2018-07-04T22:08:40.134Z,14.17
2018-07-04T22:11:26.934Z,10.80
2018-07-04T22:14:14.104Z,8.43
2018-07-04T22:17:01.121Z,8.60
2018-07-04T22:19:48.004Z,9.20
2018-07-04T22:22:35.384Z,8.67
2018-07-04T22:25:22.494Z,7.30
2018-07-04T22:28:09.671Z,8.77
2018-07-04T22:30:56.972Z,8.67
2018-07-04T22:33:43.839Z,8.10
2018-07-04T22:36:30.891Z,8.53
2018-07-04T22:39:17.708Z,8.37
2018-07-04T22:42:04.563Z,8.93
2018-07-04T22:44:51.486Z,8.33
2018-07-04T22:47:38.442Z,8.57
2018-07-04T22:50:25.155Z,7.37
2018-07-04T22:53:11.950Z,6.80
2018-07-04T22:55:58.729Z,6.73
2018-07-04T22:58:45.735Z,6.30
2018-07-04T23:01:32.928Z,6.53
2018-07-04T23:04:19.678Z,5.97
2018-07-04T23:07:06.592Z,6.00
2018-07-04T23:09:53.647Z,5.50
2018-07-04T23:12:40.797Z,5.93
2018-07-04T23:15:27.665Z,4.57
2018-07-04T23:18:14.529Z,4.83
2018-07-04T23:21:01.376Z,4.90
2018-07-04T23:23:48.714Z,4.73
2018-07-04T23:26:35.686Z,5.13
2018-07-04T23:29:22.405Z,4.97
2018-07-04T23:32:09.562Z,5.17
2018-07-04T23:34:56.656Z,5.67
2018-07-04T23:37:43.775Z,4.93
2018-07-04T23:40:30.530Z,4.60
2018-07-04T23:43:17.396Z,5.30
2018-07-04T23:46:04.333Z,4.93
2018-07-04T23:48:51.056Z,5.00
2018-07-04T23:51:37.832Z,4.77
2018-07-04T23:54:24.607Z,5.27
2018-07-04T23:57:11.450Z,4.90
2018-07-04T23:59:58.248Z,4.30
